createdAt,value
2022-09-25T00:02:00.175Z,101654.31
2022-09-25T00:07:03.656Z,101663.00
2022-09-25T00:12:07.996Z,101662.84
2022-09-25T00:17:10.917Z,101654.75
2022-09-25T00:22:13.905Z,101660.59
2022-09-25T00:27:19.380Z,101661.34
2022-09-25T00:32:22.552Z,101670.03
2022-09-25T00:37:25.859Z,101661.03
2022-09-25T00:42:30.980Z,101662.69
2022-09-25T00:47:49.691Z,101665.16
2022-09-25T00:52:54.620Z,101664.19
2022-09-25T00:58:00.653Z,101672.81
2022-09-25T01:03:05.200Z,101667.44
2022-09-25T01:08:11.843Z,101671.72
2022-09-25T01:13:17.860Z,101660.97
2022-09-25T01:18:35.688Z,101664.28
2022-09-25T01:24:07.141Z,101664.34
2022-09-25T01:29:15.726Z,101668.63
2022-09-25T01:34:27.587Z,101662.88
2022-09-25T01:39:33.941Z,101671.34
2022-09-25T01:44:41.318Z,101669.47
2022-09-25T01:49:49.355Z,101663.22
2022-09-25T01:54:56.359Z,101671.69
2022-09-25T02:00:05.799Z,101659.22
2022-09-25T02:05:19.745Z,101647.84
2022-09-25T02:10:27.743Z,101661.19
2022-09-25T02:15:35.858Z,101666.28
2022-09-25T02:20:42.510Z,101663.41
2022-09-25T02:25:50.459Z,101661.38
2022-09-25T02:30:57.513Z,101666.34
2022-09-25T02:36:02.805Z,101664.47
2022-09-25T02:41:15.534Z,101673.91
2022-09-25T02:46:28.768Z,101655.22
2022-09-25T02:51:37.850Z,101673.06
2022-09-25T02:56:45.959Z,101666.84
2022-09-25T03:01:51.287Z,101666.75
2022-09-25T03:06:54.895Z,101650.94
2022-09-25T03:11:57.752Z,101658.41
2022-09-25T03:17:04.860Z,101664.41
2022-09-25T03:22:07.817Z,101660.69
2022-09-25T03:27:10.741Z,101661.38
2022-09-25T03:32:15.079Z,101659.53
2022-09-25T03:37:18.012Z,101651.59
2022-09-25T03:42:20.968Z,101648.97
2022-09-25T03:47:25.293Z,101655.03
2022-09-25T03:52:28.308Z,101651.50
2022-09-25T03:57:31.754Z,101652.31
2022-09-25T04:02:36.155Z,101649.81
2022-09-25T04:07:39.229Z,101644.72
2022-09-25T04:12:43.833Z,101642.34
2022-09-25T04:17:48.034Z,101649.56
2022-09-25T04:22:50.948Z,101656.59
2022-09-25T04:27:55.456Z,101640.84
2022-09-25T04:33:16.980Z,101650.44
2022-09-25T04:38:19.940Z,101648.66
2022-09-25T04:43:23.045Z,101646.66
2022-09-25T04:48:27.432Z,101637.91
2022-09-25T04:53:31.909Z,101631.59
2022-09-25T04:58:34.976Z,101621.94
2022-09-25T05:03:39.202Z,101626.19
2022-09-25T05:08:42.054Z,101634.69
2022-09-25T05:13:46.857Z,101635.59
2022-09-25T05:18:51.373Z,101631.59
2022-09-25T05:23:54.322Z,101638.22
2022-09-25T05:28:57.860Z,101629.38
2022-09-25T05:34:02.406Z,101625.34
2022-09-25T05:39:05.492Z,101639.09
2022-09-25T05:44:09.880Z,101641.88
2022-09-25T05:49:14.231Z,101635.66
2022-09-25T06:00:38.852Z,101633.69
2022-09-25T06:05:46.214Z,101631.25
2022-09-25T06:10:54.903Z,101642.53
2022-09-25T06:15:57.851Z,101648.94
2022-09-25T06:21:04.309Z,101659.81
2022-09-25T06:26:09.405Z,101660.09
2022-09-25T06:31:12.344Z,101651.75
2022-09-25T06:36:16.683Z,101641.34
2022-09-25T06:41:20.034Z,101653.41
2022-09-25T06:46:23.605Z,101652.09
2022-09-25T06:51:28.927Z,101654.47
2022-09-25T06:56:31.978Z,101655.78
2022-09-25T07:01:34.928Z,101659.63
2022-09-25T07:06:39.237Z,101662.53
2022-09-25T07:11:44.145Z,101664.88
2022-09-25T07:16:47.086Z,101660.03
2022-09-25T07:21:51.405Z,101669.28
2022-09-25T07:26:54.388Z,101674.03
2022-09-25T07:31:57.494Z,101672.38
2022-09-25T07:37:02.077Z,101665.16
2022-09-25T07:42:05.202Z,101660.00
2022-09-25T07:47:08.997Z,101663.53
2022-09-25T07:52:13.628Z,101667.97
2022-09-25T07:57:20.582Z,101665.41
2022-09-25T08:02:23.631Z,101665.66
2022-09-25T08:07:28.823Z,101654.66
2022-09-25T08:12:32.040Z,101664.97
2022-09-25T08:17:35.027Z,101666.19
2022-09-25T08:22:39.364Z,101668.97
2022-09-25T08:27:43.429Z,101673.72
2022-09-25T08:32:46.647Z,101668.16
2022-09-25T08:37:51.141Z,101667.19
2022-09-25T08:42:55.908Z,101660.47
2022-09-25T08:48:17.468Z,101657.03
2022-09-25T08:53:26.219Z,101661.69
2022-09-25T08:58:32.395Z,101661.38
2022-09-25T09:03:48.142Z,101653.56
2022-09-25T09:08:58.987Z,101656.09
2022-09-25T09:14:04.777Z,101660.72
2022-09-25T09:19:10.631Z,101646.56
2022-09-25T09:24:18.819Z,101649.03
2022-09-25T09:29:34.855Z,101650.50
2022-09-25T09:35:12.774Z,101645.31
2022-09-25T09:40:30.862Z,101637.81
2022-09-25T09:45:42.178Z,101645.75
2022-09-25T09:50:53.003Z,101634.44
2022-09-25T09:56:02.606Z,101634.84
2022-09-25T10:01:16.246Z,101633.88
2022-09-25T10:06:32.051Z,101638.56
2022-09-25T10:11:37.544Z,101630.28
2022-09-25T10:16:40.736Z,101613.13
2022-09-25T10:21:49.031Z,101622.84
2022-09-25T10:26:53.407Z,101627.03
2022-09-25T10:32:01.023Z,101632.19
2022-09-25T10:37:20.475Z,101624.09
2022-09-25T10:42:39.508Z,101619.19
2022-09-25T10:48:01.949Z,101618.44
2022-09-25T10:53:07.711Z,101620.34
2022-09-25T10:58:20.735Z,101620.91
2022-09-25T11:03:26.538Z,101610.00
2022-09-25T11:08:36.383Z,101601.94
2022-09-25T11:13:47.642Z,101590.88
2022-09-25T11:18:52.369Z,101587.28
2022-09-25T11:24:14.757Z,101593.16
2022-09-25T11:29:29.464Z,101585.91
2022-09-25T11:34:57.751Z,101593.81
2022-09-25T11:40:32.246Z,101573.03
2022-09-25T11:45:44.387Z,101573.72
2022-09-25T11:50:54.528Z,101557.31
2022-09-25T11:56:06.974Z,101558.47
2022-09-25T12:01:22.845Z,101557.69
2022-09-25T12:06:49.207Z,101558.56
2022-09-25T12:12:03.203Z,101542.81
2022-09-25T12:17:14.973Z,101519.91
2022-09-25T12:22:28.993Z,101528.25
2022-09-25T12:27:46.446Z,101528.34
2022-09-25T12:33:17.774Z,101530.81
2022-09-25T12:38:30.226Z,101520.78
2022-09-25T12:43:41.314Z,101509.09
2022-09-25T12:48:51.457Z,101513.88
2022-09-25T12:53:59.640Z,101491.13
2022-09-25T12:59:10.967Z,101504.97
2022-09-25T13:04:38.486Z,101486.41
2022-09-25T13:09:45.096Z,101498.84
2022-09-25T13:14:54.241Z,101482.50
2022-09-25T13:20:45.044Z,101484.19
2022-09-25T13:25:53.764Z,101469.13
2022-09-25T13:31:09.225Z,101475.09
2022-09-25T13:36:28.658Z,101478.28
2022-09-25T13:41:32.724Z,101487.69
2022-09-25T13:46:37.600Z,101480.91
2022-09-25T13:51:46.129Z,101485.59
2022-09-25T13:56:50.769Z,101487.72
2022-09-25T14:01:56.731Z,101490.88
2022-09-25T14:07:12.955Z,101480.75
2022-09-25T14:12:25.678Z,101479.38
2022-09-25T14:17:32.513Z,101485.00
2022-09-25T14:22:44.556Z,101474.28
2022-09-25T14:27:52.507Z,101462.25
2022-09-25T14:33:13.700Z,101472.19
2022-09-25T14:39:01.368Z,101459.06
2022-09-25T14:44:24.118Z,101459.41
2022-09-25T14:49:30.302Z,101452.41
2022-09-25T14:54:39.320Z,101441.63
2022-09-25T14:59:47.132Z,101439.41
2022-09-25T15:04:51.221Z,101442.22
2022-09-25T15:09:57.788Z,101438.50
2022-09-25T15:15:08.153Z,101423.84
2022-09-25T15:20:16.636Z,101433.75
2022-09-25T15:25:26.303Z,101426.69
2022-09-25T15:30:29.879Z,101410.09
2022-09-25T15:35:33.429Z,101396.13
2022-09-25T15:40:38.374Z,101405.09
2022-09-25T15:45:45.740Z,101398.66
2022-09-25T15:50:49.821Z,101386.81
2022-09-25T15:56:04.249Z,101396.31
2022-09-25T16:01:24.631Z,101413.06
2022-09-25T16:06:30.340Z,101405.22
2022-09-25T16:11:34.628Z,101416.28
2022-09-25T16:16:47.468Z,101418.34
2022-09-25T16:21:50.794Z,101402.13
2022-09-25T16:26:57.978Z,101408.22
2022-09-25T16:32:04.814Z,101414.31
2022-09-25T16:37:19.912Z,101408.91
2022-09-25T16:42:35.712Z,101407.94
2022-09-25T16:47:38.756Z,101400.69
2022-09-25T16:52:43.303Z,101400.44
2022-09-25T16:57:47.720Z,101406.28
2022-09-25T17:02:51.058Z,101407.66
2022-09-25T17:07:55.987Z,101397.75
2022-09-25T17:13:02.639Z,101388.81
2022-09-25T17:18:13.106Z,101390.50
2022-09-25T17:23:18.139Z,101377.91
2022-09-25T17:28:22.555Z,101360.81
2022-09-25T17:33:25.500Z,101365.88
2022-09-25T17:38:28.472Z,101363.91
2022-09-25T17:43:32.857Z,101359.03
2022-09-25T17:48:35.843Z,101367.59
2022-09-25T17:53:39.079Z,101364.78
2022-09-25T17:58:44.563Z,101355.75
2022-09-25T18:03:47.759Z,101358.13
2022-09-25T18:08:51.362Z,101371.84
2022-09-25T18:13:57.010Z,101362.59
2022-09-25T18:19:17.305Z,101359.91
2022-09-25T18:24:20.340Z,101358.97
2022-09-25T18:29:24.723Z,101350.94
2022-09-25T18:34:29.675Z,101350.88
2022-09-25T18:39:32.667Z,101343.88
2022-09-25T18:44:42.327Z,101336.72
2022-09-25T18:49:45.987Z,101332.97
2022-09-25T18:54:49.121Z,101320.41
2022-09-25T18:59:53.950Z,101313.19
2022-09-25T19:04:58.442Z,101299.91
2022-09-25T19:10:07.695Z,101294.72
2022-09-25T19:15:13.570Z,101291.22
2022-09-25T19:20:17.773Z,101291.97
2022-09-25T19:25:22.601Z,101297.88
2022-09-25T19:30:27.218Z,101287.78
2022-09-25T19:35:30.429Z,101288.47
2022-09-25T19:40:41.850Z,101278.56
2022-09-25T19:45:51.455Z,101273.75
2022-09-25T19:50:54.403Z,101283.16
2022-09-25T19:55:57.464Z,101273.13
2022-09-25T20:01:02.232Z,101270.38
2022-09-25T20:06:05.696Z,101261.19
2022-09-25T20:11:14.435Z,101256.50
2022-09-25T20:16:20.711Z,101252.75
2022-09-25T20:21:24.072Z,101245.47
2022-09-25T20:26:28.025Z,101244.50
2022-09-25T20:31:34.375Z,101232.94
2022-09-25T20:36:39.177Z,101216.91
2022-09-25T20:41:42.152Z,101222.28
2022-09-25T20:46:46.584Z,101215.88
2022-09-25T20:51:49.513Z,101205.19
2022-09-25T20:56:52.758Z,101199.03
2022-09-25T21:01:58.087Z,101201.84
2022-09-25T21:07:01.776Z,101198.41
2022-09-25T21:12:05.918Z,101201.88
2022-09-25T21:17:11.105Z,101209.94
2022-09-25T21:22:14.106Z,101197.66
2022-09-25T21:27:17.017Z,101197.72
2022-09-25T21:32:21.407Z,101200.09
2022-09-25T21:37:24.319Z,101191.44
2022-09-25T21:42:29.632Z,101180.00
2022-09-25T21:47:34.604Z,101180.00
2022-09-25T21:52:40.915Z,101162.38
2022-09-25T21:57:44.076Z,101152.78
2022-09-25T22:02:50.361Z,101146.56
2022-09-25T22:07:53.574Z,101143.06
2022-09-25T22:12:57.400Z,101138.66
2022-09-25T22:18:01.853Z,101136.88
2022-09-25T22:23:04.889Z,101130.47
2022-09-25T22:28:07.984Z,101127.81
2022-09-25T22:33:12.226Z,101121.50
2022-09-25T22:38:15.230Z,101109.06
2022-09-25T22:43:18.117Z,101109.88
2022-09-25T22:48:22.613Z,101100.16
2022-09-25T22:53:26.933Z,101091.31
2022-09-25T22:58:29.863Z,101084.25
2022-09-25T23:03:34.141Z,101049.63
2022-09-25T23:08:37.301Z,101051.66
2022-09-25T23:13:40.179Z,101048.94
2022-09-25T23:18:44.626Z,101038.47
2022-09-25T23:23:47.630Z,101021.69
2022-09-25T23:28:50.726Z,101015.56
2022-09-25T23:33:56.021Z,101011.13
2022-09-25T23:39:00.765Z,101001.50
2022-09-25T23:44:05.743Z,100997.94
2022-09-25T23:49:11.173Z,100987.25
2022-09-25T23:54:14.115Z,100989.19
2022-09-25T23:59:17.177Z,100977.81
